Time;durP1;ratioP1;P1;durP2;ratioP2;P2;SDS_P1;SDS_P2;PMS_P1;PMS_P2;Temp;Humidity;BMP_temperature;BMP_pressure;BME280_temperature;BME280_humidity;BME280_pressure;Samples;Min_cycle;Max_cycle;Signal;HPM_P1;HPM_P2
2023/10/17 00:02:27;;;;;;;5.50;2.20;;;8.10;1.00;;;;;;5029988;28;20531;-79
2023/10/17 00:04:53;;;;;;;4.10;2.10;;;8.20;1.00;;;;;;5030090;28;20178;-78
2023/10/17 00:07:20;;;;;;;3.00;1.90;;;8.20;1.00;;;;;;5029118;28;20498;-79
2023/10/17 00:09:47;;;;;;;3.30;2.23;;;8.20;1.00;;;;;;5030122;28;20202;-78
2023/10/17 00:14:55;;;;;;;2.67;2.10;;;8.20;1.00;;;;;;5025184;28;20517;-79
2023/10/17 00:17:21;;;;;;;2.70;1.90;;;8.20;1.00;;;;;;5030070;28;20162;-79
2023/10/17 00:19:49;;;;;;;2.33;1.73;;;8.10;1.00;;;;;;5029011;28;20432;-78
2023/10/17 00:22:18;;;;;;;5.07;2.10;;;8.10;1.00;;;;;;5030276;28;20432;-78
2023/10/17 00:24:46;;;;;;;3.83;2.23;;;8.10;1.00;;;;;;5028951;28;20988;-79
2023/10/17 00:27:12;;;;;;;5.37;2.60;;;8.10;1.00;;;;;;5027999;28;20449;-78
2023/10/17 00:29:38;;;;;;;3.10;2.30;;;8.10;1.00;;;;;;5030211;28;20463;-78
2023/10/17 00:32:04;;;;;;;5.10;2.53;;;8.10;1.00;;;;;;5030263;28;20515;-78
2023/10/17 00:34:29;;;;;;;2.70;2.10;;;8.10;1.00;;;;;;5032559;28;20229;-79
2023/10/17 00:37:06;;;;;;;3.50;2.30;;;8.10;1.00;;;;;;5028884;28;20181;-79
2023/10/17 00:39:32;;;;;;;3.50;2.13;;;8.10;1.00;;;;;;5024391;28;20258;-79
2023/10/17 00:44:41;;;;;;;11.07;2.00;;;8.10;1.00;;;;;;5027798;28;20652;-80
2023/10/17 00:47:08;;;;;;;4.10;2.70;;;8.10;1.00;;;;;;5025591;28;20925;-78
2023/10/17 00:49:41;;;;;;;4.20;2.23;;;8.10;1.00;;;;;;5026806;28;20448;-78
2023/10/17 00:52:23;;;;;;;3.57;2.10;;;8.10;1.00;;;;;;5027338;28;20422;-78
2023/10/17 00:54:51;;;;;;;2.93;2.03;;;8.10;1.00;;;;;;5022968;28;20448;-78
2023/10/17 00:57:17;;;;;;;4.90;2.00;;;8.00;1.00;;;;;;5026189;28;20722;-77
2023/10/17 00:59:53;;;;;;;4.40;2.30;;;8.00;1.00;;;;;;5026728;28;20619;-79
2023/10/17 01:02:23;;;;;;;6.70;2.73;;;8.00;1.00;;;;;;5026487;28;20428;-79
2023/10/17 01:04:49;;;;;;;3.37;2.23;;;8.00;1.00;;;;;;5027684;28;21027;-79
2023/10/17 01:07:29;;;;;;;3.60;2.07;;;7.90;1.00;;;;;;5019853;28;20437;-80
2023/10/17 01:09:55;;;;;;;2.60;1.83;;;7.90;1.00;;;;;;5021757;28;20471;-79
2023/10/17 01:12:26;;;;;;;4.47;2.27;;;7.90;1.00;;;;;;5027919;28;20442;-79
2023/10/17 01:14:52;;;;;;;3.50;2.33;;;7.90;1.00;;;;;;5025180;28;20966;-77
2023/10/17 01:17:23;;;;;;;2.40;2.07;;;7.90;1.00;;;;;;5027982;28;20523;-78
2023/10/17 01:19:49;;;;;;;3.27;2.00;;;7.90;1.00;;;;;;5025560;28;20251;-78
2023/10/17 01:22:15;;;;;;;12.83;2.67;;;7.70;1.00;;;;;;5027502;28;20433;-78
2023/10/17 01:24:41;;;;;;;7.03;2.80;;;7.80;1.00;;;;;;5027863;28;20541;-78
2023/10/17 01:27:11;;;;;;;2.57;1.83;;;7.80;1.00;;;;;;5025638;28;20182;-78
2023/10/17 01:29:38;;;;;;;3.73;2.07;;;7.80;1.00;;;;;;5018845;28;20819;-77
2023/10/17 01:32:05;;;;;;;3.80;2.17;;;7.80;1.00;;;;;;5026954;28;20444;-78
2023/10/17 01:34:31;;;;;;;3.67;2.10;;;7.80;1.00;;;;;;5025647;28;20942;-78
2023/10/17 01:36:57;;;;;;;3.10;1.90;;;7.80;1.00;;;;;;5026938;28;20440;-79
2023/10/17 01:39:25;;;;;;;3.40;1.80;;;7.80;1.00;;;;;;5023896;28;20185;-78
2023/10/17 01:41:52;;;;;;;3.37;1.90;;;7.80;1.00;;;;;;5026565;28;20516;-77
2023/10/17 01:44:17;;;;;;;2.67;1.97;;;7.80;1.00;;;;;;5030796;28;20506;-78
2023/10/17 01:46:43;;;;;;;2.93;2.00;;;7.80;1.00;;;;;;5026146;28;20429;-80
2023/10/17 01:49:13;;;;;;;2.43;2.00;;;7.80;1.00;;;;;;5029005;28;20289;-80
2023/10/17 01:51:43;;;;;;;3.77;2.03;;;7.80;1.00;;;;;;5024425;28;20516;-78
2023/10/17 01:54:11;;;;;;;5.37;2.13;;;7.80;1.00;;;;;;5028885;28;20476;-78
2023/10/17 01:56:39;;;;;;;5.90;1.93;;;7.80;1.00;;;;;;5042760;28;20443;-78
2023/10/17 01:59:10;;;;;;;3.20;2.50;;;7.70;1.00;;;;;;5042267;28;20593;-78
2023/10/17 02:01:36;;;;;;;4.10;2.03;;;7.70;1.00;;;;;;5024614;28;20456;-78
2023/10/17 02:04:14;;;;;;;2.80;1.80;;;7.70;1.00;;;;;;5029272;28;20487;-79
2023/10/17 02:06:42;;;;;;;2.90;1.90;;;7.70;1.00;;;;;;5028085;28;20213;-79
2023/10/17 02:10:08;;;;;;;4.83;2.10;;;7.70;1.00;;;;;;5022393;28;20508;-79
2023/10/17 02:12:04;;;;;;;3.27;2.00;;;7.70;1.00;;;;;;5030054;28;20498;-79
2023/10/17 02:14:29;;;;;;;5.57;2.13;;;7.70;1.00;;;;;;5029374;28;20443;-78
2023/10/17 02:16:59;;;;;;;3.83;2.10;;;7.80;1.00;;;;;;5026084;28;20475;-77
2023/10/17 02:19:27;;;;;;;2.40;1.70;;;7.80;1.00;;;;;;5030415;28;20267;-81
2023/10/17 02:21:54;;;;;;;2.17;1.80;;;7.80;1.00;;;;;;5025680;28;20435;-80
2023/10/17 02:24:20;;;;;;;4.13;1.90;;;7.80;1.00;;;;;;5028481;28;20456;-78
2023/10/17 02:26:55;;;;;;;2.80;2.00;;;7.80;1.00;;;;;;5027480;28;20432;-80
2023/10/17 02:29:24;;;;;;;3.30;2.00;;;7.80;1.00;;;;;;5027696;28;20258;-80
2023/10/17 02:31:54;;;;;;;2.87;1.90;;;7.80;1.00;;;;;;5027612;28;20984;-78
2023/10/17 02:34:23;;;;;;;4.23;1.70;;;7.80;1.00;;;;;;5027441;28;20863;-79
2023/10/17 02:36:54;;;;;;;2.43;1.80;;;7.80;1.00;;;;;;5027777;28;20450;-79
2023/10/17 02:39:20;;;;;;;2.60;2.13;;;7.80;1.00;;;;;;5027736;28;20432;-81
2023/10/17 02:41:46;;;;;;;2.93;2.07;;;7.80;1.00;;;;;;5027144;28;21051;-78
2023/10/17 02:44:19;;;;;;;3.03;2.10;;;7.80;1.00;;;;;;5031441;28;20229;-78
2023/10/17 02:46:44;;;;;;;3.23;2.03;;;7.80;1.00;;;;;;5027251;28;20463;-79
2023/10/17 02:49:13;;;;;;;2.43;2.00;;;7.80;1.00;;;;;;5028377;28;20997;-78
2023/10/17 02:51:42;;;;;;;3.90;2.20;;;7.80;1.00;;;;;;5025061;28;20181;-78
2023/10/17 02:54:12;;;;;;;4.57;2.03;;;7.80;1.00;;;;;;5023966;28;20525;-80
2023/10/17 02:56:39;;;;;;;3.10;2.00;;;7.80;1.00;;;;;;5025408;28;20444;-78
2023/10/17 02:59:06;;;;;;;4.23;2.23;;;7.80;1.00;;;;;;5028236;28;20494;-79
2023/10/17 03:01:36;;;;;;;5.60;2.00;;;7.80;1.00;;;;;;5032730;28;20431;-79
2023/10/17 03:04:09;;;;;;;3.53;1.90;;;7.80;1.00;;;;;;5027605;28;20452;-77
2023/10/17 03:06:42;;;;;;;3.90;1.80;;;7.80;1.00;;;;;;5031657;28;20428;-77
2023/10/17 03:09:16;;;;;;;3.70;2.10;;;7.80;1.00;;;;;;5027060;28;20970;-75
2023/10/17 03:11:57;;;;;;;2.80;2.17;;;7.80;1.00;;;;;;5023671;28;20432;-78
2023/10/17 03:14:39;;;;;;;4.30;1.80;;;7.80;1.00;;;;;;5043808;28;20448;-79
2023/10/17 03:17:05;;;;;;;4.90;2.10;;;7.90;1.00;;;;;;5027109;28;20424;-78
2023/10/17 03:19:32;;;;;;;3.60;2.30;;;7.90;1.00;;;;;;5027783;28;20428;-79
2023/10/17 03:22:16;;;;;;;3.10;2.30;;;7.90;1.00;;;;;;5026938;28;20448;-78
2023/10/17 03:24:48;;;;;;;3.63;2.20;;;7.90;1.00;;;;;;5028855;28;20451;-78
2023/10/17 03:27:24;;;;;;;2.87;1.80;;;7.90;1.00;;;;;;5031158;28;20444;-79
2023/10/17 03:29:51;;;;;;;3.43;2.20;;;7.90;1.00;;;;;;5030963;28;20486;-78
2023/10/17 03:32:16;;;;;;;2.57;2.07;;;7.90;1.00;;;;;;5039231;28;20436;-77
2023/10/17 03:34:45;;;;;;;4.93;2.30;;;7.90;1.00;;;;;;5031555;28;20546;-78
2023/10/17 03:40:16;;;;;;;3.03;2.10;;;7.90;1.00;;;;;;5030482;28;20607;-77
2023/10/17 03:42:53;;;;;;;5.10;2.37;;;7.90;1.00;;;;;;5031717;28;20428;-79
2023/10/17 03:47:53;;;;;;;2.20;1.87;;;7.90;1.00;;;;;;5031258;28;20437;-76
2023/10/17 03:50:31;;;;;;;3.23;1.90;;;7.90;1.00;;;;;;5024037;28;20467;-77
2023/10/17 03:53:05;;;;;;;3.30;1.70;;;7.90;1.00;;;;;;5031059;28;20448;-78
2023/10/17 03:55:31;;;;;;;2.90;2.30;;;7.80;1.00;;;;;;5030753;28;20417;-77
2023/10/17 03:57:59;;;;;;;2.40;1.90;;;7.80;1.00;;;;;;5032423;28;20590;-78
2023/10/17 04:00:28;;;;;;;2.43;2.13;;;7.80;1.00;;;;;;5029518;28;20626;-79
2023/10/17 04:02:53;;;;;;;4.50;2.40;;;7.80;1.00;;;;;;5030259;28;20459;-78
2023/10/17 04:05:23;;;;;;;2.80;2.27;;;7.70;1.00;;;;;;5030670;28;20440;-78
2023/10/17 04:07:52;;;;;;;4.83;1.90;;;7.70;1.00;;;;;;5031097;28;20185;-77
2023/10/17 04:13:12;;;;;;;2.50;1.97;;;8.80;1.00;;;;;;5030275;28;20554;-78
2023/10/17 04:15:35;;;;;;;2.67;2.00;;;6.10;1.00;;;;;;5028175;28;20840;-78
2023/10/17 04:18:01;;;;;;;2.40;1.83;;;7.60;1.00;;;;;;5030355;28;20634;-77
2023/10/17 04:20:30;;;;;;;4.23;2.17;;;7.60;1.00;;;;;;5045572;28;20178;-78
2023/10/17 04:22:56;;;;;;;5.27;2.30;;;7.60;1.00;;;;;;5037224;28;21144;-78
2023/10/17 04:25:35;;;;;;;3.10;2.20;;;7.60;1.00;;;;;;5030371;28;20463;-77
2023/10/17 04:28:01;;;;;;;2.60;2.03;;;7.60;1.00;;;;;;5030178;28;20339;-76
2023/10/17 04:30:35;;;;;;;3.30;2.00;;;7.50;1.00;;;;;;5020319;28;20465;-76
2023/10/17 04:33:09;;;;;;;5.53;2.27;;;7.60;1.00;;;;;;5029566;28;20448;-79
2023/10/17 04:35:35;;;;;;;3.67;2.03;;;7.60;1.00;;;;;;5022668;28;20436;-77
2023/10/17 04:38:11;;;;;;;3.00;2.13;;;7.60;1.00;;;;;;5030041;28;20444;-78
2023/10/17 04:40:50;;;;;;;6.10;2.00;;;7.60;1.00;;;;;;5025362;28;20515;-77
2023/10/17 04:46:01;;;;;;;3.60;1.93;;;7.50;1.00;;;;;;5030061;28;20501;-77
2023/10/17 04:48:34;;;;;;;3.83;2.10;;;7.50;1.00;;;;;;5030389;28;20443;-78
2023/10/17 04:51:12;;;;;;;4.37;1.90;;;7.50;1.00;;;;;;5032119;28;20437;-78
2023/10/17 04:53:40;;;;;;;3.63;2.53;;;5.70;1.00;;;;;;5040268;28;20990;-79
2023/10/17 04:58:40;;;;;;;8.13;1.90;;;8.70;1.00;;;;;;5034129;28;20815;-77
2023/10/17 05:03:46;;;;;;;3.00;1.97;;;7.50;1.00;;;;;;5029387;28;20974;-76
2023/10/17 05:09:00;;;;;;;4.90;2.23;;;7.50;1.00;;;;;;5029711;28;21006;-77
2023/10/17 06:17:20;;;;;;;5.97;2.93;;;8.00;1.00;;;;;;5027190;28;20478;-78
2023/10/17 06:19:46;;;;;;;4.10;2.40;;;8.00;1.00;;;;;;5023925;28;20960;-77
2023/10/17 06:32:48;;;;;;;3.60;2.40;;;8.00;1.00;;;;;;5027169;28;20478;-76
2023/10/17 06:35:20;;;;;;;2.50;1.97;;;8.00;1.00;;;;;;5026754;28;20427;-76
2023/10/17 06:37:49;;;;;;;11.53;2.40;;;8.10;1.00;;;;;;5029104;28;20511;-77
2023/10/17 06:40:15;;;;;;;3.53;2.30;;;8.10;1.00;;;;;;5030634;28;20463;-76
2023/10/17 06:42:57;;;;;;;3.50;2.40;;;8.10;1.00;;;;;;5028049;28;20432;-75
2023/10/17 06:45:23;;;;;;;3.57;1.90;;;8.10;1.00;;;;;;5026018;28;20917;-76
2023/10/17 06:47:49;;;;;;;5.20;2.20;;;8.10;1.00;;;;;;5029168;28;20511;-76
2023/10/17 06:55:39;;;;;;;3.70;2.40;;;8.30;1.00;;;;;;5025435;28;20431;-77
2023/10/17 06:58:10;;;;;;;4.77;2.70;;;8.30;1.00;;;;;;5033358;28;20436;-76
2023/10/17 07:00:49;;;;;;;4.77;2.40;;;8.50;1.00;;;;;;5034581;28;20787;-76
2023/10/17 07:03:16;;;;;;;3.10;2.20;;;8.60;1.00;;;;;;5031636;28;20447;-76
2023/10/17 07:05:49;;;;;;;7.17;3.10;;;8.70;1.00;;;;;;5029340;28;20425;-76
2023/10/17 07:08:16;;;;;;;6.67;2.50;;;8.70;1.00;;;;;;5033053;28;20432;-76
2023/10/17 07:10:58;;;;;;;4.30;2.67;;;8.80;1.00;;;;;;5030509;28;20997;-76
2023/10/17 07:16:34;;;;;;;4.67;3.00;;;8.90;1.00;;;;;;5031322;28;20511;-76
2023/10/17 07:24:25;;;;;;;5.80;2.90;;;9.00;1.00;;;;;;5029229;28;20459;-75
2023/10/17 07:26:54;;;;;;;9.23;2.60;;;9.20;1.00;;;;;;5034146;28;20887;-74
2023/10/17 07:29:23;;;;;;;5.50;2.60;;;9.30;1.00;;;;;;5029635;28;20456;-76
2023/10/17 07:32:01;;;;;;;2.33;2.10;;;9.30;1.00;;;;;;5028753;28;20525;-75
2023/10/17 07:34:33;;;;;;;4.60;2.77;;;9.40;1.00;;;;;;5028525;28;20464;-76
2023/10/17 07:37:14;;;;;;;3.53;2.67;;;9.60;1.00;;;;;;5032148;28;20818;-75
2023/10/17 07:39:59;;;;;;;5.20;2.50;;;9.70;1.00;;;;;;5031632;28;20443;-77
2023/10/17 07:42:30;;;;;;;4.00;2.60;;;9.70;1.00;;;;;;5029080;28;21019;-76
2023/10/17 07:45:01;;;;;;;4.37;2.90;;;9.70;1.00;;;;;;5030401;28;20943;-76
2023/10/17 07:47:33;;;;;;;5.53;2.67;;;9.90;1.00;;;;;;5027888;28;20433;-74
2023/10/17 07:50:00;;;;;;;4.90;2.80;;;10.10;1.00;;;;;;5043224;28;20478;-76
2023/10/17 07:52:26;;;;;;;6.30;2.73;;;10.20;1.00;;;;;;5030473;28;21119;-76
2023/10/17 07:55:17;;;;;;;3.80;2.50;;;10.30;1.00;;;;;;5029597;28;20622;-77
2023/10/17 07:57:40;;;;;;;3.90;2.47;;;10.30;1.00;;;;;;5031834;28;20186;-78
2023/10/17 08:00:26;;;;;;;5.13;3.00;;;10.30;1.00;;;;;;5029857;28;20658;-78
2023/10/17 08:03:00;;;;;;;3.60;2.77;;;10.40;1.00;;;;;;5029969;28;20451;-75
2023/10/17 08:05:36;;;;;;;5.47;2.80;;;10.30;1.00;;;;;;5029721;28;20451;-76
2023/10/17 08:08:13;;;;;;;3.67;2.87;;;10.30;1.00;;;;;;5028800;28;21005;-77
2023/10/17 08:10:39;;;;;;;3.80;2.90;;;10.40;1.00;;;;;;5029281;28;20618;-76
2023/10/17 08:13:07;;;;;;;5.30;2.93;;;10.40;1.00;;;;;;5030144;28;20448;-76
2023/10/17 08:15:43;;;;;;;6.07;2.93;;;10.50;1.00;;;;;;5030421;28;20432;-75
2023/10/17 08:18:15;;;;;;;4.50;3.03;;;10.50;1.00;;;;;;5029467;28;20967;-75
2023/10/17 08:21:33;;;;;;;5.30;2.93;;;10.60;1.00;;;;;;5031692;28;20545;-75
2023/10/17 08:23:40;;;;;;;3.70;2.97;;;10.60;1.00;;;;;;5029675;28;20842;-73
2023/10/17 08:26:10;;;;;;;5.30;3.10;;;10.60;1.00;;;;;;5030165;28;20439;-76
2023/10/17 08:29:00;;;;;;;3.90;2.83;;;10.70;1.00;;;;;;5029552;28;20810;-75
2023/10/17 08:31:23;;;;;;;4.50;2.90;;;10.80;1.00;;;;;;5027474;28;20432;-75
2023/10/17 08:37:07;;;;;;;7.77;3.20;;;11.10;1.00;;;;;;5029041;28;20420;-76
2023/10/17 08:42:14;;;;;;;7.60;3.83;;;11.50;1.00;;;;;;5031318;28;20440;-75
2023/10/17 08:44:42;;;;;;;4.00;2.60;;;11.70;1.00;;;;;;5026113;28;20571;-78
2023/10/17 08:47:10;;;;;;;6.23;3.00;;;12.00;1.00;;;;;;5028789;28;20843;-76
2023/10/17 08:49:36;;;;;;;8.07;3.70;;;12.40;1.00;;;;;;5029082;28;20920;-77
2023/10/17 08:52:03;;;;;;;5.33;3.40;;;12.60;1.00;;;;;;5041092;28;20568;-73
2023/10/17 08:54:29;;;;;;;6.60;3.57;;;12.80;1.00;;;;;;5028150;28;20199;-74
2023/10/17 08:56:56;;;;;;;7.70;3.70;;;12.90;1.00;;;;;;5025974;28;20431;-77
2023/10/17 09:05:12;;;;;;;7.67;3.43;;;12.80;1.00;;;;;;5030744;28;20436;-74
2023/10/17 09:07:43;;;;;;;5.80;3.80;;;12.70;1.00;;;;;;5023140;28;20429;-74
2023/10/17 09:10:39;;;;;;;6.33;4.13;;;12.60;1.00;;;;;;5026231;28;20574;-76
2023/10/17 09:15:48;;;;;;;6.17;3.80;;;12.50;1.00;;;;;;5028357;28;20443;-75
2023/10/17 09:18:14;;;;;;;7.20;3.23;;;12.50;1.00;;;;;;5031453;28;20460;-75
2023/10/17 09:20:40;;;;;;;4.47;3.23;;;12.40;1.00;;;;;;5022801;28;20855;-73
2023/10/17 09:23:38;;;;;;;6.00;3.77;;;12.30;1.00;;;;;;5028315;28;20452;-74
2023/10/17 09:26:07;;;;;;;25.37;4.43;;;12.20;1.00;;;;;;5024404;28;20752;-75
2023/10/17 09:28:35;;;;;;;6.00;3.53;;;12.20;1.00;;;;;;5027998;28;20859;-71
2023/10/17 09:31:08;;;;;;;5.80;3.77;;;12.30;1.00;;;;;;5027735;28;20784;-75
2023/10/17 09:33:45;;;;;;;5.87;3.70;;;12.20;1.00;;;;;;5026040;28;20507;-77
2023/10/17 09:36:13;;;;;;;6.10;3.60;;;12.20;1.00;;;;;;5028970;28;20428;-75
2023/10/17 09:38:46;;;;;;;9.20;3.50;;;12.30;1.00;;;;;;5028940;28;20943;-79
2023/10/17 09:41:17;;;;;;;5.43;3.53;;;12.40;1.00;;;;;;5029579;28;20695;-76
2023/10/17 09:43:46;;;;;;;7.10;3.90;;;12.30;1.00;;;;;;5031019;28;21031;-76
2023/10/17 09:46:13;;;;;;;6.10;3.70;;;12.30;1.00;;;;;;5028795;28;20922;-74
2023/10/17 09:48:43;;;;;;;9.47;3.70;;;12.30;1.00;;;;;;5029038;28;20432;-78
2023/10/17 09:51:25;;;;;;;5.30;3.50;;;12.60;1.00;;;;;;5029288;28;20432;-78
2023/10/17 09:53:58;;;;;;;6.97;4.27;;;12.80;1.00;;;;;;5027689;28;20456;-75
2023/10/17 09:56:29;;;;;;;6.43;3.60;;;13.10;1.00;;;;;;5028329;28;20991;-74
2023/10/17 09:59:02;;;;;;;7.40;3.80;;;13.30;1.00;;;;;;5025944;28;21029;-73
2023/10/17 10:01:31;;;;;;;6.23;3.90;;;13.50;1.00;;;;;;5020305;28;20492;-75
2023/10/17 10:04:01;;;;;;;6.17;4.00;;;13.50;1.00;;;;;;5026615;28;20499;-73
2023/10/17 10:06:32;;;;;;;7.93;3.73;;;13.30;1.00;;;;;;5025828;28;20479;-78
2023/10/17 10:09:06;;;;;;;8.40;3.90;;;13.20;1.00;;;;;;5028966;28;20527;-76
2023/10/17 10:11:53;;;;;;;6.30;3.57;;;13.20;1.00;;;;;;5025030;28;20498;-80
2023/10/17 10:14:27;;;;;;;7.20;3.90;;;13.10;1.00;;;;;;5027001;28;20454;-77
2023/10/17 10:17:05;;;;;;;9.30;4.03;;;13.10;1.00;;;;;;5028326;28;20535;-74
2023/10/17 10:19:40;;;;;;;7.67;3.70;;;13.10;1.00;;;;;;5027940;28;20462;-74
2023/10/17 10:22:07;;;;;;;10.77;3.90;;;13.20;1.00;;;;;;5029564;28;20446;-76
2023/10/17 10:24:34;;;;;;;7.23;4.30;;;13.30;1.00;;;;;;5029663;28;20853;-79
2023/10/17 10:27:08;;;;;;;9.10;4.20;;;13.50;1.00;;;;;;5028373;28;20516;-79
2023/10/17 10:29:34;;;;;;;8.60;4.00;;;13.60;1.00;;;;;;5042596;28;20459;-74
2023/10/17 10:32:06;;;;;;;6.10;3.70;;;13.70;1.00;;;;;;5023527;28;20440;-75
2023/10/17 10:34:45;;;;;;;10.23;4.27;;;13.70;1.00;;;;;;5038471;28;20499;-75
2023/10/17 10:37:13;;;;;;;9.47;4.10;;;13.60;1.00;;;;;;5027759;28;20776;-75
2023/10/17 10:39:38;;;;;;;6.90;3.80;;;13.60;1.00;;;;;;5027161;28;20489;-75
2023/10/17 10:42:07;;;;;;;12.20;3.80;;;14.00;1.00;;;;;;5044114;28;20516;-75
2023/10/17 10:44:41;;;;;;;7.07;3.53;;;14.30;1.00;;;;;;5028415;28;20252;-76
2023/10/17 10:47:08;;;;;;;6.73;3.43;;;14.70;1.00;;;;;;5027325;28;20906;-78
2023/10/17 10:49:33;;;;;;;5.77;3.60;;;15.10;1.00;;;;;;5028737;28;20460;-79
2023/10/17 10:51:59;;;;;;;7.17;3.90;;;15.50;1.00;;;;;;5028510;28;20440;-73
2023/10/17 10:54:45;;;;;;;7.60;4.40;;;15.80;1.00;;;;;;5027345;28;20746;-73
2023/10/17 10:57:12;;;;;;;6.20;3.60;;;15.70;1.00;;;;;;5021911;28;20689;-75
2023/10/17 10:59:49;;;;;;;7.33;4.13;;;15.60;1.00;;;;;;5025516;28;20926;-74
2023/10/17 11:02:15;;;;;;;6.70;3.80;;;15.50;1.00;;;;;;5025836;28;20467;-76
2023/10/17 11:04:40;;;;;;;8.03;3.70;;;15.40;1.00;;;;;;5028541;28;20494;-77
2023/10/17 11:07:23;;;;;;;11.43;4.43;;;15.30;1.00;;;;;;5029086;28;20178;-79
2023/10/17 11:10:03;;;;;;;10.13;4.03;;;15.00;1.00;;;;;;5024398;28;20202;-76
2023/10/17 11:12:28;;;;;;;7.87;3.97;;;15.00;1.00;;;;;;5026384;28;20432;-75
2023/10/17 11:15:18;;;;;;;6.40;4.10;;;14.80;1.00;;;;;;5029541;28;20494;-75
2023/10/17 11:17:45;;;;;;;8.40;3.60;;;14.60;1.00;;;;;;5025281;28;20191;-75
2023/10/17 11:20:18;;;;;;;9.83;4.10;;;14.40;1.00;;;;;;5028160;28;20478;-76
2023/10/17 11:22:45;;;;;;;7.23;3.87;;;14.00;1.00;;;;;;5021495;28;20486;-75
2023/10/17 11:25:31;;;;;;;8.10;3.83;;;14.00;1.00;;;;;;5028801;28;20459;-75
2023/10/17 11:28:00;;;;;;;7.73;3.90;;;13.90;1.00;;;;;;5028031;28;20448;-77
2023/10/17 11:30:33;;;;;;;6.10;4.00;;;14.20;1.00;;;;;;5044645;28;20835;-74
2023/10/17 11:33:06;;;;;;;6.77;4.07;;;14.30;1.00;;;;;;5028213;28;20456;-75
2023/10/17 11:35:34;;;;;;;6.70;3.73;;;14.40;1.00;;;;;;5028232;28;20443;-77
2023/10/17 11:38:01;;;;;;;7.63;4.37;;;14.60;1.00;;;;;;5031161;28;20522;-76
2023/10/17 11:40:38;;;;;;;5.40;4.03;;;14.80;1.00;;;;;;5027998;28;20472;-74
2023/10/17 11:43:34;;;;;;;8.27;4.07;;;15.10;1.00;;;;;;5026980;28;20455;-78
2023/10/17 11:46:02;;;;;;;6.57;4.00;;;14.90;1.00;;;;;;5020312;28;20506;-75
2023/10/17 11:48:31;;;;;;;6.40;3.80;;;13.20;1.00;;;;;;5025748;28;20463;-75
2023/10/17 11:51:13;;;;;;;8.20;4.20;;;14.70;1.00;;;;;;5024664;28;20555;-76
2023/10/17 11:54:05;;;;;;;5.77;4.40;;;15.00;1.00;;;;;;5032594;28;20815;-78
2023/10/17 11:56:36;;;;;;;8.23;4.63;;;15.30;1.00;;;;;;5032114;28;20599;-75
2023/10/17 11:59:05;;;;;;;11.53;3.97;;;15.90;1.00;;;;;;5031005;28;20460;-76
2023/10/17 12:01:34;;;;;;;9.73;4.77;;;16.40;1.00;;;;;;5029416;28;20531;-73
2023/10/17 12:04:06;;;;;;;6.93;4.00;;;16.40;1.00;;;;;;5031939;28;20488;-77
2023/10/17 12:06:35;;;;;;;7.40;4.40;;;16.00;1.00;;;;;;5028421;28;20432;-74
2023/10/17 12:09:17;;;;;;;5.93;3.90;;;16.20;1.00;;;;;;5031929;28;20802;-75
2023/10/17 12:11:47;;;;;;;8.07;4.67;;;16.80;1.00;;;;;;5029588;28;20419;-78
2023/10/17 12:14:19;;;;;;;6.50;4.60;;;17.70;1.00;;;;;;5032561;28;20452;-75
2023/10/17 12:16:55;;;;;;;7.10;4.53;;;17.90;1.00;;;;;;5031433;28;20516;-78
2023/10/17 12:19:21;;;;;;;8.63;4.83;;;17.60;1.00;;;;;;5031471;28;20459;-75
2023/10/17 12:21:48;;;;;;;6.43;4.43;;;17.40;1.00;;;;;;5034011;28;20745;-77
2023/10/17 12:24:16;;;;;;;8.63;4.23;;;17.30;1.00;;;;;;5032814;28;20456;-77
2023/10/17 12:26:45;;;;;;;7.87;4.47;;;17.10;1.00;;;;;;5030922;28;21315;-76
2023/10/17 12:29:12;;;;;;;8.20;4.60;;;16.50;1.00;;;;;;5030286;28;20472;-79
2023/10/17 12:31:39;;;;;;;7.13;4.37;;;16.30;1.00;;;;;;5030166;28;20427;-76
2023/10/17 12:34:07;;;;;;;5.47;4.00;;;16.40;1.00;;;;;;5033235;28;20444;-75
2023/10/17 12:36:36;;;;;;;6.83;4.20;;;16.40;1.00;;;;;;5029143;28;20431;-76
2023/10/17 12:39:08;;;;;;;9.80;4.30;;;16.50;1.00;;;;;;5029608;28;20443;-75
2023/10/17 12:41:34;;;;;;;8.10;4.70;;;16.50;1.00;;;;;;5026968;28;20479;-75
2023/10/17 12:44:00;;;;;;;5.33;3.93;;;16.60;1.00;;;;;;5031291;28;20458;-75
2023/10/17 12:46:25;;;;;;;5.97;3.80;;;16.30;1.00;;;;;;5031807;28;20436;-74
2023/10/17 12:48:51;;;;;;;6.37;3.70;;;16.00;1.00;;;;;;5029178;28;20197;-77
2023/10/17 12:51:20;;;;;;;5.63;3.97;;;15.80;1.00;;;;;;5029591;28;20190;-79
2023/10/17 12:53:46;;;;;;;7.60;4.13;;;15.40;1.00;;;;;;5029471;28;20248;-75
2023/10/17 12:56:12;;;;;;;5.20;3.83;;;15.10;1.00;;;;;;5030444;28;20432;-74
2023/10/17 12:58:37;;;;;;;6.63;4.03;;;15.30;1.00;;;;;;5030365;28;20447;-74
2023/10/17 13:01:04;;;;;;;9.80;3.80;;;15.50;1.00;;;;;;5029287;28;20548;-76
2023/10/17 13:03:33;;;;;;;5.43;3.47;;;15.60;1.00;;;;;;5030279;28;20235;-75
2023/10/17 13:06:02;;;;;;;6.87;3.90;;;15.60;1.00;;;;;;5031151;28;20428;-75
2023/10/17 13:08:28;;;;;;;5.07;4.23;;;15.80;1.00;;;;;;5031410;28;20474;-74
2023/10/17 13:10:55;;;;;;;6.57;3.90;;;16.00;1.00;;;;;;5029064;28;20463;-77
2023/10/17 13:13:21;;;;;;;7.53;4.00;;;16.00;1.00;;;;;;5030997;28;20232;-74
2023/10/17 13:15:47;;;;;;;6.50;3.73;;;15.90;1.00;;;;;;5036080;28;20424;-73
2023/10/17 13:18:14;;;;;;;8.90;4.53;;;15.80;1.00;;;;;;5029581;28;20528;-74
2023/10/17 13:20:48;;;;;;;9.90;4.30;;;15.90;1.00;;;;;;5032472;28;20216;-74
2023/10/17 13:23:17;;;;;;;5.83;4.20;;;16.40;1.00;;;;;;5030885;28;20460;-74
2023/10/17 13:25:46;;;;;;;6.00;4.10;;;16.40;1.00;;;;;;5030596;28;20528;-73
2023/10/17 13:28:12;;;;;;;6.03;4.00;;;16.30;1.00;;;;;;5029618;28;20436;-76
2023/10/17 13:30:38;;;;;;;7.63;4.20;;;15.90;1.00;;;;;;5029847;28;20950;-74
2023/10/17 13:33:04;;;;;;;4.90;3.60;;;15.70;1.00;;;;;;5024107;28;20620;-74
2023/10/17 13:35:30;;;;;;;6.53;3.60;;;15.50;1.00;;;;;;5025116;28;20201;-74
2023/10/17 13:37:56;;;;;;;6.83;3.77;;;15.40;1.00;;;;;;5028408;28;20469;-75
2023/10/17 13:40:24;;;;;;;5.57;3.80;;;15.40;1.00;;;;;;5029321;28;20177;-76
2023/10/17 13:42:50;;;;;;;6.60;3.60;;;15.50;1.00;;;;;;5028503;28;20432;-75
2023/10/17 13:45:17;;;;;;;7.00;3.80;;;15.50;1.00;;;;;;5026727;28;20446;-74
2023/10/17 13:47:43;;;;;;;6.50;3.57;;;15.40;1.00;;;;;;5026505;28;20455;-76
2023/10/17 13:50:13;;;;;;;6.30;3.93;;;15.30;1.00;;;;;;5029197;28;20998;-77
2023/10/17 13:52:42;;;;;;;5.93;3.60;;;15.10;1.00;;;;;;5028007;28;20174;-74
2023/10/17 13:55:14;;;;;;;7.17;4.00;;;15.10;1.00;;;;;;5028253;28;20448;-77
2023/10/17 13:57:42;;;;;;;5.63;3.40;;;15.10;1.00;;;;;;5027718;28;20462;-73
2023/10/17 14:00:21;;;;;;;5.07;3.40;;;15.10;1.00;;;;;;5021718;28;20494;-75
2023/10/17 14:02:47;;;;;;;4.83;3.53;;;15.00;1.00;;;;;;5028726;28;20806;-73
2023/10/17 14:05:13;;;;;;;5.97;3.57;;;15.00;1.00;;;;;;5027257;28;20926;-74
2023/10/17 14:07:39;;;;;;;10.83;4.40;;;15.00;1.00;;;;;;5031285;28;20440;-74
2023/10/17 14:10:09;;;;;;;4.60;3.20;;;14.90;1.00;;;;;;5021252;28;20197;-77
2023/10/17 14:12:39;;;;;;;5.40;3.80;;;15.00;1.00;;;;;;5026878;28;20238;-73
2023/10/17 14:15:09;;;;;;;5.33;3.60;;;15.00;1.00;;;;;;5028228;28;20791;-75
2023/10/17 14:17:35;;;;;;;6.30;3.40;;;15.10;1.00;;;;;;5028744;28;20477;-78
2023/10/17 14:20:15;;;;;;;5.73;3.23;;;15.20;1.00;;;;;;5044400;28;20483;-75
2023/10/17 14:28:11;;;;;;;4.37;3.40;;;15.00;1.00;;;;;;5030843;28;21008;-77
2023/10/17 14:30:39;;;;;;;5.73;3.27;;;14.70;1.00;;;;;;5028769;28;20547;-79
2023/10/17 14:33:05;;;;;;;7.23;3.03;;;14.50;1.00;;;;;;5028506;28;20456;-73
2023/10/17 14:35:35;;;;;;;6.50;3.20;;;14.40;1.00;;;;;;5028794;28;20436;-74
2023/10/17 14:38:00;;;;;;;5.20;3.30;;;14.40;1.00;;;;;;5032785;28;20648;-76
2023/10/17 14:40:29;;;;;;;8.07;3.67;;;14.30;1.00;;;;;;5028727;28;20438;-75
2023/10/17 14:42:55;;;;;;;9.27;3.40;;;14.20;1.00;;;;;;5025000;28;20205;-76
2023/10/17 14:45:24;;;;;;;6.27;3.23;;;14.00;1.00;;;;;;5029325;28;20424;-75
2023/10/17 14:47:50;;;;;;;5.23;3.50;;;13.90;1.00;;;;;;5034201;28;20173;-74
2023/10/17 14:50:15;;;;;;;4.97;3.10;;;13.80;1.00;;;;;;5041796;28;20943;-75
2023/10/17 14:52:41;;;;;;;4.70;2.70;;;13.80;1.00;;;;;;5024552;28;20500;-74
2023/10/17 14:55:14;;;;;;;6.07;3.03;;;13.90;1.00;;;;;;5028976;28;20174;-76
2023/10/17 14:57:45;;;;;;;5.77;3.10;;;14.00;1.00;;;;;;5034445;28;20754;-74
2023/10/17 15:00:13;;;;;;;5.47;3.13;;;14.00;1.00;;;;;;5023469;28;20434;-79
2023/10/17 15:02:39;;;;;;;5.23;3.50;;;13.80;1.00;;;;;;5033208;28;20416;-75
2023/10/17 15:05:11;;;;;;;6.23;2.97;;;14.90;1.00;;;;;;5031799;28;20785;-78
2023/10/17 15:07:38;;;;;;;5.47;3.13;;;13.80;1.00;;;;;;5030234;28;20433;-77
2023/10/17 15:10:11;;;;;;;3.17;2.57;;;13.80;1.00;;;;;;5028193;28;20467;-74
2023/10/17 15:12:40;;;;;;;4.43;2.87;;;13.60;1.00;;;;;;5023002;28;20422;-75
2023/10/17 15:15:10;;;;;;;5.33;3.37;;;13.60;1.00;;;;;;5028545;28;20818;-76
2023/10/17 15:17:42;;;;;;;4.70;3.10;;;13.50;1.00;;;;;;5032258;28;20420;-76
2023/10/17 15:20:11;;;;;;;6.87;3.50;;;13.40;1.00;;;;;;5032189;28;20424;-76
2023/10/17 15:22:38;;;;;;;4.37;3.20;;;13.30;1.00;;;;;;5036524;28;20508;-76
2023/10/17 15:25:04;;;;;;;6.03;3.03;;;13.30;1.00;;;;;;5024070;28;20408;-76
2023/10/17 15:27:30;;;;;;;5.77;3.20;;;13.40;1.00;;;;;;5032234;28;20440;-76
2023/10/17 15:29:55;;;;;;;4.30;2.67;;;13.40;1.00;;;;;;5031983;28;20559;-78
2023/10/17 15:32:21;;;;;;;4.53;2.90;;;13.40;1.00;;;;;;5029089;28;20197;-75